sensor_id;sensor_type;location;lat;lon;timestamp;pressure;altitude;pressure_sealevel;temperature;humidity
39051;BME280;24805;55.852;37.644;2023-05-28T00:01:28;99319.63;;;13.16;46.77
39051;BME280;24805;55.852;37.644;2023-05-28T00:06:30;99319.50;;;13.03;47.22
39051;BME280;24805;55.852;37.644;2023-05-28T00:11:32;99328.06;;;12.92;47.42
39051;BME280;24805;55.852;37.644;2023-05-28T00:16:34;99318.44;;;13.32;42.89
39051;BME280;24805;55.852;37.644;2023-05-28T00:21:37;99315.47;;;12.79;48.03
39051;BME280;24805;55.852;37.644;2023-05-28T00:26:39;99324.53;;;12.85;47.56
39051;BME280;24805;55.852;37.644;2023-05-28T00:31:41;99322.25;;;12.82;47.94
39051;BME280;24805;55.852;37.644;2023-05-28T00:36:44;99319.34;;;12.70;47.80
39051;BME280;24805;55.852;37.644;2023-05-28T00:41:46;99314.97;;;12.62;48.46
39051;BME280;24805;55.852;37.644;2023-05-28T00:46:48;99314.34;;;12.54;49.12
39051;BME280;24805;55.852;37.644;2023-05-28T00:51:51;99315.94;;;12.48;49.05
39051;BME280;24805;55.852;37.644;2023-05-28T00:56:54;99315.69;;;12.43;49.09
39051;BME280;24805;55.852;37.644;2023-05-28T01:01:56;99314.41;;;12.39;49.81
39051;BME280;24805;55.852;37.644;2023-05-28T01:06:59;99312.16;;;12.36;49.68
39051;BME280;24805;55.852;37.644;2023-05-28T01:12:02;99320.91;;;12.30;49.56
39051;BME280;24805;55.852;37.644;2023-05-28T01:17:06;99313.69;;;12.24;50.06
39051;BME280;24805;55.852;37.644;2023-05-28T01:22:10;99329.47;;;12.25;50.20
39051;BME280;24805;55.852;37.644;2023-05-28T01:27:18;99334.34;;;12.22;50.20
39051;BME280;24805;55.852;37.644;2023-05-28T01:32:21;99334.53;;;12.20;50.15
39051;BME280;24805;55.852;37.644;2023-05-28T01:37:24;99326.06;;;12.10;50.18
39051;BME280;24805;55.852;37.644;2023-05-28T01:42:28;99343.59;;;12.26;50.10
39051;BME280;24805;55.852;37.644;2023-05-28T01:47:30;99351.31;;;12.21;50.76
39051;BME280;24805;55.852;37.644;2023-05-28T01:52:33;99341.91;;;12.18;50.18
39051;BME280;24805;55.852;37.644;2023-05-28T01:57:36;99345.78;;;12.16;50.63
39051;BME280;24805;55.852;37.644;2023-05-28T02:02:38;99338.81;;;12.15;50.95
39051;BME280;24805;55.852;37.644;2023-05-28T02:07:42;99344.13;;;12.15;51.28
39051;BME280;24805;55.852;37.644;2023-05-28T02:12:44;99346.34;;;12.67;47.83
39051;BME280;24805;55.852;37.644;2023-05-28T02:17:47;99343.22;;;12.29;50.93
39051;BME280;24805;55.852;37.644;2023-05-28T02:23:09;99337.59;;;12.80;46.26
39051;BME280;24805;55.852;37.644;2023-05-28T02:28:11;99330.63;;;12.44;50.38
39051;BME280;24805;55.852;37.644;2023-05-28T02:33:12;99338.75;;;12.98;47.44
39051;BME280;24805;55.852;37.644;2023-05-28T02:38:15;99351.66;;;12.67;50.34
39051;BME280;24805;55.852;37.644;2023-05-28T02:43:17;99357.03;;;12.73;50.37
39051;BME280;24805;55.852;37.644;2023-05-28T02:48:19;99349.97;;;13.28;47.01
39051;BME280;24805;55.852;37.644;2023-05-28T02:53:22;99342.19;;;12.92;49.40
39051;BME280;24805;55.852;37.644;2023-05-28T02:58:25;99345.94;;;12.98;49.68
39051;BME280;24805;55.852;37.644;2023-05-28T03:03:28;99350.06;;;13.07;49.86
39051;BME280;24805;55.852;37.644;2023-05-28T03:08:31;99341.75;;;13.17;48.93
39051;BME280;24805;55.852;37.644;2023-05-28T03:13:34;99350.75;;;13.22;49.85
39051;BME280;24805;55.852;37.644;2023-05-28T03:18:38;99358.81;;;13.35;48.86
39051;BME280;24805;55.852;37.644;2023-05-28T03:23:42;99347.81;;;13.52;49.33
39051;BME280;24805;55.852;37.644;2023-05-28T03:28:48;99357.25;;;13.61;48.62
39051;BME280;24805;55.852;37.644;2023-05-28T03:34:01;99364.22;;;13.62;48.96
39051;BME280;24805;55.852;37.644;2023-05-28T03:39:04;99333.88;;;13.56;48.90
39051;BME280;24805;55.852;37.644;2023-05-28T03:44:07;99363.03;;;13.71;48.53
39051;BME280;24805;55.852;37.644;2023-05-28T03:49:10;99363.47;;;13.74;48.80
39051;BME280;24805;55.852;37.644;2023-05-28T03:54:13;99335.34;;;13.72;48.50
39051;BME280;24805;55.852;37.644;2023-05-28T03:59:15;99355.47;;;13.88;48.42
39051;BME280;24805;55.852;37.644;2023-05-28T04:04:17;99331.91;;;13.91;48.91
39051;BME280;24805;55.852;37.644;2023-05-28T04:09:20;99358.59;;;14.31;47.85
39051;BME280;24805;55.852;37.644;2023-05-28T04:14:21;99357.66;;;15.16;44.85
39051;BME280;24805;55.852;37.644;2023-05-28T04:19:23;99363.72;;;14.78;46.91
39051;BME280;24805;55.852;37.644;2023-05-28T04:24:26;99357.13;;;14.81;46.74
39051;BME280;24805;55.852;37.644;2023-05-28T04:29:28;99341.91;;;14.95;46.33
39051;BME280;24805;55.852;37.644;2023-05-28T04:34:32;99345.28;;;15.22;46.17
39051;BME280;24805;55.852;37.644;2023-05-28T04:39:34;99372.41;;;15.25;46.20
39051;BME280;24805;55.852;37.644;2023-05-28T04:44:36;99361.94;;;15.24;45.77
39051;BME280;24805;55.852;37.644;2023-05-28T04:49:40;99373.16;;;15.39;46.04
39051;BME280;24805;55.852;37.644;2023-05-28T04:54:46;99358.69;;;15.66;45.51
39051;BME280;24805;55.852;37.644;2023-05-28T04:59:48;99368.13;;;15.69;45.30
39051;BME280;24805;55.852;37.644;2023-05-28T05:04:51;99360.72;;;16.02;44.42
39051;BME280;24805;55.852;37.644;2023-05-28T05:09:55;99370.69;;;16.20;44.09
39051;BME280;24805;55.852;37.644;2023-05-28T05:14:58;99373.66;;;16.37;44.35
39051;BME280;24805;55.852;37.644;2023-05-28T05:20:01;99387.63;;;16.39;43.57
39051;BME280;24805;55.852;37.644;2023-05-28T05:25:06;99387.47;;;16.34;43.69
39051;BME280;24805;55.852;37.644;2023-05-28T05:30:09;99377.03;;;16.26;43.75
39051;BME280;24805;55.852;37.644;2023-05-28T05:35:12;99396.03;;;16.17;44.43
39051;BME280;24805;55.852;37.644;2023-05-28T05:40:44;99390.84;;;15.91;44.67
39051;BME280;24805;55.852;37.644;2023-05-28T05:46:15;99377.47;;;15.46;45.84
39051;BME280;24805;55.852;37.644;2023-05-28T05:51:17;99395.44;;;15.33;46.53
39051;BME280;24805;55.852;37.644;2023-05-28T05:56:20;99379.81;;;15.23;46.79
39051;BME280;24805;55.852;37.644;2023-05-28T06:01:22;99397.91;;;15.21;46.66
39051;BME280;24805;55.852;37.644;2023-05-28T06:06:24;99422.00;;;15.08;47.02
39051;BME280;24805;55.852;37.644;2023-05-28T06:11:47;99401.50;;;14.89;47.49
39051;BME280;24805;55.852;37.644;2023-05-28T06:16:49;99425.34;;;14.57;48.59
39051;BME280;24805;55.852;37.644;2023-05-28T06:21:53;99428.78;;;14.31;49.51
39051;BME280;24805;55.852;37.644;2023-05-28T06:26:55;99432.66;;;14.09;49.42
39051;BME280;24805;55.852;37.644;2023-05-28T06:31:58;99444.94;;;13.97;49.93
39051;BME280;24805;55.852;37.644;2023-05-28T06:37:00;99444.69;;;13.85;50.69
39051;BME280;24805;55.852;37.644;2023-05-28T06:42:02;99443.88;;;13.78;50.95
39051;BME280;24805;55.852;37.644;2023-05-28T06:47:12;99451.16;;;13.63;51.98
39051;BME280;24805;55.852;37.644;2023-05-28T06:52:14;99463.03;;;14.08;49.63
39051;BME280;24805;55.852;37.644;2023-05-28T06:57:16;99468.13;;;13.49;53.34
39051;BME280;24805;55.852;37.644;2023-05-28T07:02:41;99469.47;;;13.31;54.71
39051;BME280;24805;55.852;37.644;2023-05-28T07:08:09;99476.41;;;13.26;55.62
39051;BME280;24805;55.852;37.644;2023-05-28T07:13:11;99464.06;;;13.18;55.91
39051;BME280;24805;55.852;37.644;2023-05-28T07:18:14;99481.78;;;13.39;55.86
39051;BME280;24805;55.852;37.644;2023-05-28T07:23:16;99475.56;;;13.60;55.74
39051;BME280;24805;55.852;37.644;2023-05-28T07:28:18;99465.41;;;13.83;55.63
39051;BME280;24805;55.852;37.644;2023-05-28T07:33:21;99465.25;;;13.98;55.59
39051;BME280;24805;55.852;37.644;2023-05-28T07:38:23;99458.28;;;13.97;55.08
39051;BME280;24805;55.852;37.644;2023-05-28T07:43:29;99460.28;;;13.88;54.81
39051;BME280;24805;55.852;37.644;2023-05-28T07:48:37;99471.16;;;13.87;55.55
39051;BME280;24805;55.852;37.644;2023-05-28T07:53:53;99479.56;;;13.84;55.70
39051;BME280;24805;55.852;37.644;2023-05-28T07:58:57;99482.84;;;13.86;55.57
39051;BME280;24805;55.852;37.644;2023-05-28T08:03:59;99484.34;;;13.95;55.42
39051;BME280;24805;55.852;37.644;2023-05-28T08:09:08;99478.19;;;14.01;55.78
39051;BME280;24805;55.852;37.644;2023-05-28T08:14:12;99484.00;;;14.24;55.21
39051;BME280;24805;55.852;37.644;2023-05-28T08:19:16;99479.75;;;14.50;54.98
39051;BME280;24805;55.852;37.644;2023-05-28T08:24:20;99478.56;;;14.72;54.99
39051;BME280;24805;55.852;37.644;2023-05-28T08:29:25;99474.84;;;14.93;55.19
39051;BME280;24805;55.852;37.644;2023-05-28T08:34:36;99480.75;;;15.28;54.25
39051;BME280;24805;55.852;37.644;2023-05-28T08:39:39;99476.06;;;15.88;52.98
39051;BME280;24805;55.852;37.644;2023-05-28T08:44:41;99472.13;;;16.91;49.93
39051;BME280;24805;55.852;37.644;2023-05-28T08:49:51;99483.09;;;19.24;47.18
39051;BME280;24805;55.852;37.644;2023-05-28T08:55:01;99474.56;;;23.41;39.41
39051;BME280;24805;55.852;37.644;2023-05-28T09:00:05;99473.03;;;27.26;31.13
39051;BME280;24805;55.852;37.644;2023-05-28T09:05:31;99468.59;;;27.59;29.15
39051;BME280;24805;55.852;37.644;2023-05-28T09:10:35;99468.03;;;28.05;28.13
39051;BME280;24805;55.852;37.644;2023-05-28T09:15:37;99453.50;;;30.35;24.76
39051;BME280;24805;55.852;37.644;2023-05-28T09:20:44;99462.50;;;32.47;21.83
39051;BME280;24805;55.852;37.644;2023-05-28T09:25:46;99447.59;;;33.76;20.20
39051;BME280;24805;55.852;37.644;2023-05-28T09:30:56;99446.69;;;35.21;18.62
39051;BME280;24805;55.852;37.644;2023-05-28T09:36:03;99455.22;;;35.29;18.06
39051;BME280;24805;55.852;37.644;2023-05-28T09:41:19;99458.34;;;36.40;18.61
39051;BME280;24805;55.852;37.644;2023-05-28T09:46:31;99446.13;;;36.01;16.92
39051;BME280;24805;55.852;37.644;2023-05-28T09:51:33;99426.78;;;36.13;16.66
39051;BME280;24805;55.852;37.644;2023-05-28T09:56:40;99448.06;;;36.81;16.63
39051;BME280;24805;55.852;37.644;2023-05-28T10:07:10;99437.84;;;37.60;15.23
39051;BME280;24805;55.852;37.644;2023-05-28T10:12:17;99439.66;;;37.68;14.84
39051;BME280;24805;55.852;37.644;2023-05-28T10:17:23;99434.88;;;37.84;14.96
39051;BME280;24805;55.852;37.644;2023-05-28T10:22:25;99431.63;;;37.16;15.08
39051;BME280;24805;55.852;37.644;2023-05-28T10:27:30;99415.84;;;37.32;14.92
39051;BME280;24805;55.852;37.644;2023-05-28T10:32:41;99422.25;;;37.52;15.45
39051;BME280;24805;55.852;37.644;2023-05-28T10:37:43;99409.13;;;37.02;14.69
39051;BME280;24805;55.852;37.644;2023-05-28T10:42:45;99408.47;;;35.56;16.04
39051;BME280;24805;55.852;37.644;2023-05-28T10:47:51;99421.19;;;34.05;17.65
39051;BME280;24805;55.852;37.644;2023-05-28T10:53:08;99425.19;;;34.37;17.65
39051;BME280;24805;55.852;37.644;2023-05-28T10:58:11;99410.22;;;34.59;16.41
39051;BME280;24805;55.852;37.644;2023-05-28T11:03:15;99397.19;;;35.13;16.48
39051;BME280;24805;55.852;37.644;2023-05-28T11:08:17;99397.81;;;34.52;16.51
39051;BME280;24805;55.852;37.644;2023-05-28T11:13:20;99401.53;;;35.26;16.12
39051;BME280;24805;55.852;37.644;2023-05-28T11:18:22;99398.19;;;35.94;15.76
39051;BME280;24805;55.852;37.644;2023-05-28T11:23:24;99389.25;;;36.52;14.88
39051;BME280;24805;55.852;37.644;2023-05-28T11:28:26;99388.88;;;36.82;14.77
39051;BME280;24805;55.852;37.644;2023-05-28T11:33:29;99384.81;;;36.64;14.30
39051;BME280;24805;55.852;37.644;2023-05-28T11:38:31;99381.13;;;36.59;14.43
39051;BME280;24805;55.852;37.644;2023-05-28T11:43:33;99375.84;;;35.99;14.49
39051;BME280;24805;55.852;37.644;2023-05-28T11:48:37;99386.72;;;34.94;15.27
39051;BME280;24805;55.852;37.644;2023-05-28T11:53:44;99391.31;;;33.06;15.92
39051;BME280;24805;55.852;37.644;2023-05-28T11:58:46;99424.34;;;28.80;18.58
39051;BME280;24805;55.852;37.644;2023-05-28T12:03:50;99466.06;;;24.93;27.81
39051;BME280;24805;55.852;37.644;2023-05-28T12:08:53;99472.72;;;22.19;30.49
39051;BME280;24805;55.852;37.644;2023-05-28T12:13:55;99466.28;;;20.82;33.15
39051;BME280;24805;55.852;37.644;2023-05-28T12:19:01;99453.28;;;20.46;28.50
39051;BME280;24805;55.852;37.644;2023-05-28T12:24:13;99463.25;;;21.12;34.00
39051;BME280;24805;55.852;37.644;2023-05-28T12:29:19;99460.78;;;23.00;30.98
39051;BME280;24805;55.852;37.644;2023-05-28T12:34:21;99452.22;;;24.49;28.16
39051;BME280;24805;55.852;37.644;2023-05-28T12:39:23;99446.22;;;24.26;28.55
39051;BME280;24805;55.852;37.644;2023-05-28T12:44:25;99439.84;;;23.28;29.29
39051;BME280;24805;55.852;37.644;2023-05-28T12:49:27;99429.66;;;22.34;31.23
39051;BME280;24805;55.852;37.644;2023-05-28T12:54:30;99416.13;;;22.66;31.61
39051;BME280;24805;55.852;37.644;2023-05-28T12:59:32;99427.25;;;24.42;28.58
39051;BME280;24805;55.852;37.644;2023-05-28T13:04:34;99426.63;;;26.50;26.40
39051;BME280;24805;55.852;37.644;2023-05-28T13:09:36;99431.72;;;27.43;24.04
39051;BME280;24805;55.852;37.644;2023-05-28T13:14:38;99426.97;;;27.54;23.86
39051;BME280;24805;55.852;37.644;2023-05-28T13:19:42;99415.00;;;27.02;23.94
39051;BME280;24805;55.852;37.644;2023-05-28T13:24:44;99417.44;;;25.22;24.54
39051;BME280;24805;55.852;37.644;2023-05-28T13:29:48;99419.78;;;23.71;25.88
39051;BME280;24805;55.852;37.644;2023-05-28T13:34:51;99418.22;;;22.86;27.13
39051;BME280;24805;55.852;37.644;2023-05-28T13:39:53;99417.16;;;22.60;27.93
39051;BME280;24805;55.852;37.644;2023-05-28T13:44:55;99407.88;;;22.19;28.15
39051;BME280;24805;55.852;37.644;2023-05-28T13:49:58;99413.13;;;21.77;27.71
39051;BME280;24805;55.852;37.644;2023-05-28T13:55:00;99413.69;;;21.35;28.53
39051;BME280;24805;55.852;37.644;2023-05-28T14:00:04;99406.41;;;20.97;28.89
39051;BME280;24805;55.852;37.644;2023-05-28T14:05:12;99410.00;;;20.69;29.78
39051;BME280;24805;55.852;37.644;2023-05-28T14:10:14;99405.69;;;20.51;29.78
39051;BME280;24805;55.852;37.644;2023-05-28T14:15:17;99382.28;;;20.23;29.39
39051;BME280;24805;55.852;37.644;2023-05-28T14:20:19;99403.09;;;20.28;30.03
39051;BME280;24805;55.852;37.644;2023-05-28T14:25:21;99394.34;;;20.21;30.28
39051;BME280;24805;55.852;37.644;2023-05-28T14:30:24;99390.47;;;20.00;30.74
39051;BME280;24805;55.852;37.644;2023-05-28T14:35:26;99386.94;;;19.83;31.18
39051;BME280;24805;55.852;37.644;2023-05-28T14:40:28;99385.78;;;19.79;31.89
39051;BME280;24805;55.852;37.644;2023-05-28T14:45:30;99368.50;;;19.75;31.91
39051;BME280;24805;55.852;37.644;2023-05-28T14:50:33;99368.63;;;19.68;32.09
39051;BME280;24805;55.852;37.644;2023-05-28T14:55:35;99375.66;;;19.69;32.80
39051;BME280;24805;55.852;37.644;2023-05-28T15:00:37;99384.66;;;19.75;32.61
39051;BME280;24805;55.852;37.644;2023-05-28T15:05:42;99385.06;;;19.83;32.33
39051;BME280;24805;55.852;37.644;2023-05-28T15:10:44;99378.84;;;19.83;31.83
39051;BME280;24805;55.852;37.644;2023-05-28T15:15:47;99393.47;;;19.87;31.46
39051;BME280;24805;55.852;37.644;2023-05-28T15:20:49;99396.03;;;19.93;31.07
39051;BME280;24805;55.852;37.644;2023-05-28T15:25:52;99397.03;;;20.04;30.52
39051;BME280;24805;55.852;37.644;2023-05-28T15:30:54;99408.63;;;20.21;31.20
39051;BME280;24805;55.852;37.644;2023-05-28T15:35:57;99396.81;;;20.22;31.71
39051;BME280;24805;55.852;37.644;2023-05-28T15:41:00;99412.91;;;20.34;31.90
39051;BME280;24805;55.852;37.644;2023-05-28T15:46:03;99406.13;;;20.32;30.30
39051;BME280;24805;55.852;37.644;2023-05-28T15:51:05;99416.06;;;19.86;29.64
39051;BME280;24805;55.852;37.644;2023-05-28T15:56:08;99422.25;;;19.46;30.63
39051;BME280;24805;55.852;37.644;2023-05-28T16:01:11;99390.50;;;19.08;30.72
39051;BME280;24805;55.852;37.644;2023-05-28T16:06:14;99412.13;;;19.02;31.19
39051;BME280;24805;55.852;37.644;2023-05-28T16:11:17;99426.63;;;19.01;32.04
39051;BME280;24805;55.852;37.644;2023-05-28T16:16:20;99406.78;;;18.78;30.97
39051;BME280;24805;55.852;37.644;2023-05-28T16:21:23;99402.41;;;18.54;30.05
39051;BME280;24805;55.852;37.644;2023-05-28T16:26:27;99389.84;;;18.24;30.12
39051;BME280;24805;55.852;37.644;2023-05-28T16:31:30;99434.09;;;18.22;30.61
39051;BME280;24805;55.852;37.644;2023-05-28T16:42:40;99438.47;;;18.05;31.34
39051;BME280;24805;55.852;37.644;2023-05-28T16:47:44;99435.75;;;17.93;31.86
39051;BME280;24805;55.852;37.644;2023-05-28T16:53:01;99448.97;;;17.76;32.36
39051;BME280;24805;55.852;37.644;2023-05-28T16:58:04;99455.28;;;17.64;33.49
39051;BME280;24805;55.852;37.644;2023-05-28T17:03:06;99454.47;;;17.45;33.81
39051;BME280;24805;55.852;37.644;2023-05-28T17:08:09;99460.13;;;17.37;34.09
39051;BME280;24805;55.852;37.644;2023-05-28T17:13:11;99462.81;;;17.18;34.51
39051;BME280;24805;55.852;37.644;2023-05-28T17:18:28;99456.34;;;17.01;35.15
39051;BME280;24805;55.852;37.644;2023-05-28T17:23:30;99473.97;;;16.91;35.64
39051;BME280;24805;55.852;37.644;2023-05-28T17:28:33;99467.91;;;16.77;35.92
39051;BME280;24805;55.852;37.644;2023-05-28T17:33:35;99478.06;;;16.68;36.36
39051;BME280;24805;55.852;37.644;2023-05-28T17:38:37;99481.44;;;16.57;36.70
39051;BME280;24805;55.852;37.644;2023-05-28T17:43:39;99496.94;;;16.48;37.19
39051;BME280;24805;55.852;37.644;2023-05-28T17:48:43;99485.72;;;16.33;37.83
39051;BME280;24805;55.852;37.644;2023-05-28T17:53:45;99490.53;;;16.18;39.14
39051;BME280;24805;55.852;37.644;2023-05-28T17:58:50;99471.31;;;15.96;39.93
39051;BME280;24805;55.852;37.644;2023-05-28T18:03:52;99491.09;;;15.89;40.37
39051;BME280;24805;55.852;37.644;2023-05-28T18:08:54;99498.75;;;15.78;40.93
39051;BME280;24805;55.852;37.644;2023-05-28T18:13:57;99508.25;;;15.68;41.31
39051;BME280;24805;55.852;37.644;2023-05-28T18:18:59;99503.72;;;15.55;41.70
39051;BME280;24805;55.852;37.644;2023-05-28T18:24:10;99491.41;;;15.47;42.36
39051;BME280;24805;55.852;37.644;2023-05-28T18:29:13;99507.69;;;15.33;42.53
39051;BME280;24805;55.852;37.644;2023-05-28T18:34:15;99508.31;;;15.22;42.84
39051;BME280;24805;55.852;37.644;2023-05-28T18:39:17;99512.03;;;15.14;43.41
39051;BME280;24805;55.852;37.644;2023-05-28T18:44:19;99496.41;;;15.04;43.52
39051;BME280;24805;55.852;37.644;2023-05-28T18:49:22;99503.00;;;14.95;44.09
39051;BME280;24805;55.852;37.644;2023-05-28T18:54:24;99495.59;;;14.84;44.33
39051;BME280;24805;55.852;37.644;2023-05-28T18:59:26;99500.72;;;14.79;43.68
39051;BME280;24805;55.852;37.644;2023-05-28T19:04:46;99507.31;;;14.76;43.93
39051;BME280;24805;55.852;37.644;2023-05-28T19:10:03;99515.09;;;14.71;43.66
39051;BME280;24805;55.852;37.644;2023-05-28T19:15:08;99516.75;;;14.66;43.92
39051;BME280;24805;55.852;37.644;2023-05-28T19:20:10;99511.19;;;14.61;43.89
39051;BME280;24805;55.852;37.644;2023-05-28T19:25:13;99526.38;;;14.54;43.90
39051;BME280;24805;55.852;37.644;2023-05-28T19:30:15;99527.00;;;14.49;43.96
39051;BME280;24805;55.852;37.644;2023-05-28T19:35:17;99533.13;;;14.43;44.19
39051;BME280;24805;55.852;37.644;2023-05-28T19:40:19;99517.09;;;14.36;44.38
39051;BME280;24805;55.852;37.644;2023-05-28T19:45:22;99522.19;;;14.31;44.89
39051;BME280;24805;55.852;37.644;2023-05-28T19:50:24;99533.28;;;14.28;44.57
39051;BME280;24805;55.852;37.644;2023-05-28T19:55:26;99546.19;;;14.25;44.86
39051;BME280;24805;55.852;37.644;2023-05-28T20:00:29;99543.72;;;14.17;45.06
39051;BME280;24805;55.852;37.644;2023-05-28T20:05:31;99538.97;;;14.12;45.23
39051;BME280;24805;55.852;37.644;2023-05-28T20:10:33;99545.91;;;14.06;45.41
39051;BME280;24805;55.852;37.644;2023-05-28T20:15:50;99544.03;;;14.00;45.51
39051;BME280;24805;55.852;37.644;2023-05-28T20:20:54;99547.91;;;13.91;45.70
39051;BME280;24805;55.852;37.644;2023-05-28T20:25:57;99550.94;;;13.82;46.06
39051;BME280;24805;55.852;37.644;2023-05-28T20:30:59;99554.41;;;13.75;46.55
39051;BME280;24805;55.852;37.644;2023-05-28T20:36:22;99543.06;;;13.67;46.94
39051;BME280;24805;55.852;37.644;2023-05-28T20:41:39;99551.22;;;13.59;46.68
39051;BME280;24805;55.852;37.644;2023-05-28T20:46:45;99556.34;;;13.60;47.20
39051;BME280;24805;55.852;37.644;2023-05-28T20:51:47;99555.88;;;13.50;46.68
39051;BME280;24805;55.852;37.644;2023-05-28T20:56:50;99541.25;;;13.39;47.19
39051;BME280;24805;55.852;37.644;2023-05-28T21:01:54;99565.28;;;13.46;47.74
39051;BME280;24805;55.852;37.644;2023-05-28T21:06:57;99554.56;;;13.39;48.15
39051;BME280;24805;55.852;37.644;2023-05-28T21:12:00;99560.69;;;13.33;48.19
39051;BME280;24805;55.852;37.644;2023-05-28T21:17:04;99549.97;;;13.27;48.41
39051;BME280;24805;55.852;37.644;2023-05-28T21:22:06;99556.97;;;13.28;48.51
39051;BME280;24805;55.852;37.644;2023-05-28T21:27:09;99555.50;;;13.25;48.14
39051;BME280;24805;55.852;37.644;2023-05-28T21:32:11;99569.47;;;13.27;48.56
39051;BME280;24805;55.852;37.644;2023-05-28T21:37:27;99565.53;;;13.23;48.69
39051;BME280;24805;55.852;37.644;2023-05-28T21:42:30;99561.41;;;13.21;48.34
39051;BME280;24805;55.852;37.644;2023-05-28T21:47:33;99563.03;;;13.15;48.71
39051;BME280;24805;55.852;37.644;2023-05-28T21:52:49;99556.78;;;13.08;49.05
39051;BME280;24805;55.852;37.644;2023-05-28T21:57:51;99554.69;;;13.03;49.60
39051;BME280;24805;55.852;37.644;2023-05-28T22:02:54;99554.25;;;13.00;49.41
39051;BME280;24805;55.852;37.644;2023-05-28T22:07:56;99550.97;;;12.98;49.71
39051;BME280;24805;55.852;37.644;2023-05-28T22:12:59;99552.75;;;12.91;49.53
39051;BME280;24805;55.852;37.644;2023-05-28T22:18:04;99558.19;;;12.83;49.94
39051;BME280;24805;55.852;37.644;2023-05-28T22:23:06;99560.81;;;12.76;50.05
39051;BME280;24805;55.852;37.644;2023-05-28T22:28:28;99561.63;;;12.76;49.98
39051;BME280;24805;55.852;37.644;2023-05-28T22:33:30;99562.16;;;13.15;44.50
39051;BME280;24805;55.852;37.644;2023-05-28T22:38:32;99564.66;;;12.73;50.07
39051;BME280;24805;55.852;37.644;2023-05-28T22:43:36;99573.84;;;12.71;49.98
39051;BME280;24805;55.852;37.644;2023-05-28T22:48:57;99578.34;;;12.70;50.63
39051;BME280;24805;55.852;37.644;2023-05-28T22:53:59;99587.81;;;12.73;50.45
39051;BME280;24805;55.852;37.644;2023-05-28T22:59:01;99583.50;;;12.72;51.06
39051;BME280;24805;55.852;37.644;2023-05-28T23:04:04;99585.31;;;12.71;50.53
39051;BME280;24805;55.852;37.644;2023-05-28T23:09:07;99578.66;;;12.61;50.63
39051;BME280;24805;55.852;37.644;2023-05-28T23:14:10;99594.44;;;12.62;51.04
39051;BME280;24805;55.852;37.644;2023-05-28T23:19:14;99597.03;;;12.56;50.98
39051;BME280;24805;55.852;37.644;2023-05-28T23:24:17;99603.28;;;12.48;51.04
39051;BME280;24805;55.852;37.644;2023-05-28T23:29:36;99605.50;;;12.45;51.36
39051;BME280;24805;55.852;37.644;2023-05-28T23:34:40;99607.53;;;12.42;51.95
39051;BME280;24805;55.852;37.644;2023-05-28T23:39:59;99602.97;;;12.36;51.68
39051;BME280;24805;55.852;37.644;2023-05-28T23:45:04;99611.97;;;12.35;51.82
39051;BME280;24805;55.852;37.644;2023-05-28T23:50:07;99616.00;;;12.31;51.90
39051;BME280;24805;55.852;37.644;2023-05-28T23:55:10;99611.41;;;12.25;51.43
